Flight Track Log - Related Links

Times and Time Zones

All times are in EDT time to prevent confusion due to time zone crossing. See the TAM3883 flight status page for this flight to view local times or setup timezone preferences in your user account.

Time Position Orientation Groundspeed Altitude Reporting Facility
EDT Latitude Longitude Course Direction KTS MPH feet Rate Location/Type
Fri 05:54:27 AM -5.0640 -42.8230 162° South 155 178  Level FlightAware ADS-B
Fri 05:54:43 AM -5.0760 -42.8220 175° South 161 185 800 2,250 Climbing FlightAware ADS-B
Fri 05:54:59 AM -5.0880 -42.8210 175° South 172 198 1,200 1,200 Climbing FlightAware ADS-B
Fri 05:55:23 AM -5.1060 -42.8320 211° Southwest 203 234 1,600 955 Climbing FlightAware ADS-B
Fri 05:55:43 AM -5.1170 -42.8480 235° Southwest 232 267 1,900 857 Climbing FlightAware ADS-B
Fri 05:55:51 AM -5.1240 -42.8540 220° Southwest 249 287 2,000 1,125 Climbing FlightAware ADS-B
Fri 05:55:59 AM -5.1330 -42.8600 214° Southwest 262 302 2,200 2,000 Climbing FlightAware ADS-B
Fri 05:56:15 AM -5.1510 -42.8680 204° Southwest 276 318 2,800 3,150 Climbing FlightAware ADS-B
Fri 05:56:39 AM -5.1790 -42.8790 201° Southwest 269 310 4,300 3,250 Climbing FlightAware ADS-B
Fri 05:57:03 AM -5.2080 -42.8900 201° Southwest 279 321 5,400 2,864 Climbing FlightAware ADS-B
Fri 05:57:23 AM -5.2310 -42.9010 205° Southwest 279 321 6,400 2,850 Climbing FlightAware ADS-B
Fri 05:57:43 AM -5.2550 -42.9120 205° Southwest 285 328 7,300 3,000 Climbing FlightAware ADS-B
Fri 05:58:03 AM -5.2800 -42.9240 206° Southwest 281 323 8,400 2,857 Climbing FlightAware ADS-B
Fri 05:58:25 AM -5.3060 -42.9360 205° Southwest 284 327 9,300 2,172 Climbing FlightAware ADS-B
Fri 05:59:01 AM -5.3500 -42.9570 205° Southwest 303 349 10,500 1,500 Climbing FlightAware ADS-B
Fri 05:59:37 AM -5.4010 -42.9800 204° Southwest 345 397 11,100 1,412 Climbing FlightAware ADS-B
Fri 06:00:09 AM -5.4460 -43.0020 206° Southwest 361 415 12,100 2,382 Climbing FlightAware ADS-B
Fri 06:00:45 AM -5.5030 -43.0280 204° Southwest 360 414 13,800 2,486 Climbing FlightAware ADS-B
Fri 06:01:19 AM -5.5540 -43.0520 205° Southwest 366 421 15,000 1,765 Climbing FlightAware ADS-B
Fri 06:01:53 AM -5.6070 -43.0770 205° Southwest 383 441 15,800 1,629 Climbing FlightAware ADS-B
Fri 06:02:29 AM -5.6650 -43.1040 205° Southwest 392 451 16,900 1,865 Climbing FlightAware ADS-B
Fri 06:03:07 AM -5.7300 -43.1340 205° Southwest 395 455 18,100 1,886 Climbing FlightAware ADS-B
Fri 06:03:39 AM -5.7840 -43.1590 205° Southwest 398 458 19,100 1,500 Climbing FlightAware ADS-B
Fri 06:04:15 AM -5.8450 -43.1880 205° Southwest 411 473 19,800 1,333 Climbing FlightAware ADS-B
Fri 06:04:51 AM -5.9090 -43.2170 204° Southwest 417 480 20,700 1,667 Climbing FlightAware ADS-B
Fri 06:05:27 AM -5.9700 -43.2460 205° Southwest 413 475 21,800 1,676 Climbing FlightAware ADS-B
Fri 06:05:59 AM -6.0260 -43.2720 205° Southwest 418 481 22,600 1,412 Climbing FlightAware ADS-B
Fri 06:06:35 AM -6.0900 -43.3020 205° Southwest 423 487 23,400 1,250 Climbing FlightAware ADS-B
Fri 06:07:11 AM -6.1560 -43.3320 204° Southwest 431 496 24,100 1,583 Climbing FlightAware ADS-B
Fri 06:07:47 AM -6.2190 -43.3620 205° Southwest 425 489 25,300 1,500 Climbing FlightAware ADS-B
Fri 06:08:19 AM -6.2790 -43.3900 205° Southwest 433 498 25,800 971 Climbing FlightAware ADS-B
Fri 06:08:55 AM -6.3440 -43.4200 205° Southwest 443 510 26,400 1,333 Climbing FlightAware ADS-B
Fri 06:09:31 AM -6.4120 -43.4520 205° Southwest 442 509 27,400 1,235 Climbing FlightAware ADS-B
Fri 06:10:03 AM -6.4730 -43.4810 205° Southwest 452 520 27,800 882 Climbing FlightAware ADS-B
Fri 06:10:39 AM -6.5400 -43.5120 205° Southwest 457 526 28,400 800 Climbing FlightAware ADS-B
Fri 06:11:03 AM -6.5870 -43.5340 205° Southwest 465 535 28,600 568 Climbing FlightAware ADS-B
Fri 06:11:53 AM -6.6870 -43.5810 205° Southwest 479 551 29,100 483 Climbing FlightAware ADS-B
Fri 06:12:30 AM -6.7610 -43.6150 205° Southwest 492 566 29,300 265 Climbing FlightAware ADS-B
Fri 06:13:01 AM -6.8280 -43.6470 205° Southwest 501 577 29,400 627 Climbing FlightAware ADS-B
Fri 06:13:37 AM -6.9050 -43.6830 205° Southwest 502 578 30,000 686 Climbing FlightAware ADS-B
Fri 06:14:11 AM -6.9650 -43.7110 205° Southwest 500 575 30,200 171 Climbing FlightAware ADS-B
Fri 06:14:47 AM -7.0290 -43.7420 206° Southwest 500 575 30,200  Level FlightAware ADS-B
Fri 06:15:23 AM -7.0930 -43.7720 205° Southwest 500 575 30,200  Level FlightAware ADS-B
Fri 06:15:59 AM -7.1580 -43.8020 205° Southwest 500 575 30,200  Level FlightAware ADS-B
Fri 06:16:35 AM -7.2220 -43.8320 205° Southwest 500 575 30,200  Level FlightAware ADS-B
Fri 06:17:11 AM -7.2860 -43.8620 205° Southwest 500 575 30,200  Level FlightAware ADS-B
Fri 06:17:47 AM -7.3500 -43.8920 205° Southwest 500 575 30,200  Level FlightAware ADS-B
Fri 06:18:23 AM -7.4140 -43.9220 205° Southwest 500 575 30,200  Level FlightAware ADS-B
Fri 06:19:00 AM -7.4800 -43.9530 205° Southwest 500 575 30,200  Level FlightAware ADS-B
Fri 06:19:36 AM -7.5440 -43.9840 206° Southwest 500 575 30,200  Level FlightAware ADS-B
Fri 06:20:12 AM -7.6080 -44.0140 205° Southwest 500 575 30,200  Level FlightAware ADS-B
Fri 06:20:48 AM -7.6730 -44.0440 205° Southwest 500 575 30,200  Level FlightAware ADS-B
Fri 06:21:24 AM -7.7370 -44.0740 205° Southwest 500 575 30,200  Level FlightAware ADS-B
Fri 06:22:00 AM -7.8010 -44.1040 205° Southwest 500 575 30,200  Level FlightAware ADS-B
Fri 06:22:36 AM -7.8650 -44.1350 206° Southwest 500 575 30,200  Level FlightAware ADS-B
Fri 06:23:12 AM -7.9290 -44.1650 205° Southwest 500 575 30,200 -66 Level FlightAware ADS-B
Fri 06:25:00 AM -8.0928 -44.2402 204° Southwest  Level Estimated
Fri 06:26:00 AM -8.1839 -44.2821 204° Southwest  Level Estimated
Fri 06:27:00 AM -8.2749 -44.3239 204° Southwest  Level Estimated
Fri 06:28:00 AM -8.3659 -44.3657 204° Southwest  Level Estimated
Fri 06:29:00 AM -8.4569 -44.4076 204° Southwest  Level Estimated
Fri 06:30:00 AM -8.5479 -44.4495 204° Southwest  Level Estimated
Fri 06:31:00 AM -8.6389 -44.4915 204° Southwest  Level Estimated
Fri 06:32:00 AM -8.7299 -44.5334 204° Southwest  Level Estimated
Fri 06:33:00 AM -8.8208 -44.5754 204° Southwest  Level Estimated
Fri 06:34:00 AM -8.9118 -44.6173 205° Southwest  Level Estimated
Fri 06:35:00 AM -9.0028 -44.6593 205° Southwest  Level Estimated
Fri 06:36:00 AM -9.0938 -44.7014 205° Southwest  Level Estimated
Fri 06:37:00 AM -9.1847 -44.7434 205° Southwest  Level Estimated
Fri 06:38:00 AM -9.2757 -44.7855 205° Southwest  Level Estimated
Fri 06:39:00 AM -9.3666 -44.8275 205° Southwest  Level Estimated
Fri 06:40:00 AM -9.4576 -44.8697 205° Southwest  Level Estimated
Fri 06:41:00 AM -9.5485 -44.9118 205° Southwest  Level Estimated
Fri 06:42:00 AM -9.6395 -44.9539 205° Southwest  Level Estimated
Fri 06:43:00 AM -9.7304 -44.9961 205° Southwest  Level Estimated
Fri 06:44:00 AM -9.8214 -45.0383 205° Southwest  Level Estimated
Fri 06:45:00 AM -9.9123 -45.0805 205° Southwest  Level Estimated
Fri 06:46:00 AM -10.0032 -45.1228 205° Southwest  Level Estimated
Fri 06:47:00 AM -10.0941 -45.1651 205° Southwest  Level Estimated
Fri 06:48:00 AM -10.1850 -45.2074 205° Southwest  Level Estimated
Fri 06:49:00 AM -10.2759 -45.2497 205° Southwest  Level Estimated
Fri 06:50:00 AM -10.3668 -45.2920 205° Southwest  Level Estimated
Fri 06:51:00 AM -10.4577 -45.3344 205° Southwest  Level Estimated
Fri 06:52:00 AM -10.5486 -45.3768 205° Southwest  Level Estimated
Fri 06:53:00 AM -10.6395 -45.4192 205° Southwest  Level Estimated
Fri 06:54:00 AM -10.7304 -45.4616 205° Southwest  Level Estimated
Fri 06:55:00 AM -10.8212 -45.5041 205° Southwest  Level Estimated
Fri 06:56:00 AM -10.9121 -45.5466 205° Southwest  Level Estimated
Fri 06:57:00 AM -11.0029 -45.5891 205° Southwest  Level Estimated
Fri 06:58:00 AM -11.0938 -45.6317 205° Southwest  Level Estimated
Fri 06:59:00 AM -11.1847 -45.6742 205° Southwest  Level Estimated
Fri 07:00:00 AM -11.2755 -45.7168 205° Southwest  Level Estimated
Fri 07:01:00 AM -11.3663 -45.7595 205° Southwest  Level Estimated
Fri 07:02:00 AM -11.4572 -45.8021 205° Southwest  Level Estimated
Fri 07:03:00 AM -11.5480 -45.8448 205° Southwest  Level Estimated
Fri 07:04:00 AM -11.6388 -45.8875 205° Southwest  Level Estimated
Fri 07:05:00 AM -11.7296 -45.9302 205° Southwest  Level Estimated
Fri 07:06:00 AM -11.8204 -45.9730 205° Southwest  Level Estimated
Fri 07:07:00 AM -11.9112 -46.0158 205° Southwest  Level Estimated
Fri 07:08:00 AM -12.0020 -46.0586 205° Southwest  Level Estimated
Fri 07:09:00 AM -12.0928 -46.1015 205° Southwest  Level Estimated
Fri 07:10:00 AM -12.1835 -46.1443 205° Southwest  Level Estimated
Fri 07:11:00 AM -12.2743 -46.1872 205° Southwest  Level Estimated
Fri 07:12:00 AM -12.3651 -46.2302 205° Southwest  Level Estimated
Fri 07:13:00 AM -12.4558 -46.2732 205° Southwest  Level Estimated
Fri 07:14:00 AM -12.5466 -46.3162 205° Southwest  Level Estimated
Fri 07:15:00 AM -12.6373 -46.3592 205° Southwest  Level Estimated
Fri 07:16:00 AM -12.7281 -46.4022 205° Southwest  Level Estimated
Fri 07:17:00 AM -12.8188 -46.4453 205° Southwest  Level Estimated
Fri 07:18:00 AM -12.9095 -46.4885 205° Southwest  Level Estimated
Fri 07:19:00 AM -13.0002 -46.5316 205° Southwest  Level Estimated
Fri 07:20:00 AM -13.0910 -46.5748 205° Southwest  Level Estimated
Fri 07:21:00 AM -13.1817 -46.6180 205° Southwest  Level Estimated
Fri 07:22:00 AM -13.2723 -46.6613 205° Southwest  Level Estimated
Fri 07:23:00 AM -13.3630 -46.7045 205° Southwest  Level Estimated
Fri 07:24:00 AM -13.4537 -46.7478 205° Southwest  Level Estimated
Fri 07:25:00 AM -13.5444 -46.7912 205° Southwest  Level Estimated
Fri 07:26:00 AM -13.6350 -46.8346 205° Southwest  Level Estimated
Fri 07:26:07 AM -15.2650 -47.3220 205° Southwest 461 531 26,000  Level FlightAware ADS-B
Fri 07:26:19 AM -15.2890 -47.3370 211° Southwest 462 532 25,300 -3,500 Descending FlightAware ADS-B
Fri 07:26:43 AM -15.3290 -47.3740 222° Southwest 471 542 23,900 -3,222 Descending FlightAware ADS-B
Fri 07:27:13 AM -15.3710 -47.4270 231° Southwest 471 542 22,400 -3,088 Descending FlightAware ADS-B
Fri 07:27:51 AM -15.4220 -47.4910 230° Southwest 461 531 20,400 -3,162 Descending FlightAware ADS-B
Fri 07:28:27 AM -15.4720 -47.5520 230° Southwest 448 516 18,500 -3,088 Descending FlightAware ADS-B
Fri 07:28:59 AM -15.5120 -47.6030 231° Southwest 437 503 16,900 -3,000 Descending FlightAware ADS-B
Fri 07:29:35 AM -15.5590 -47.6620 230° Southwest 425 489 15,100 -2,917 Descending FlightAware ADS-B
Fri 07:30:11 AM -15.6030 -47.7170 230° Southwest 417 480 13,400 -2,522 Descending FlightAware ADS-B
Fri 07:30:44 AM -15.6430 -47.7670 230° Southwest 403 464 12,200 -1,235 Descending FlightAware ADS-B
Fri 07:31:19 AM -15.6790 -47.8180 234° Southwest 360 414 12,000 -169 Descending FlightAware ADS-B
Fri 07:31:55 AM -15.6930 -47.8760 256° West 315 362 12,000  Level FlightAware ADS-B
Fri 07:32:32 AM -15.7060 -47.9240 254° West 279 321 12,000 -265 Level FlightAware ADS-B
Fri 07:33:03 AM -15.7160 -47.9630 255° West 260 299 11,700 -627 Descending FlightAware ADS-B
Fri 07:33:39 AM -15.7270 -48.0060 255° West 244 281 11,300 -943 Descending FlightAware ADS-B
Fri 07:34:13 AM -15.7370 -48.0430 254° West 242 278 10,600 -1,167 Descending FlightAware ADS-B
Fri 07:34:51 AM -15.7480 -48.0860 255° West 239 275 9,900 -1,138 Descending FlightAware ADS-B
Fri 07:35:11 AM -15.7530 -48.1080 257° West 238 274 9,500 -1,500 Descending FlightAware ADS-B
Fri 07:35:27 AM -15.7590 -48.1260 251° West 237 273 9,000 -1,800 Descending FlightAware ADS-B
Fri 07:35:31 AM -15.7610 -48.1290 235° Southwest 239 275 8,900 -1,500 Descending FlightAware ADS-B
Fri 07:35:39 AM -15.7680 -48.1360 224° Southwest 239 275 8,700 -1,714 Descending FlightAware ADS-B
Fri 07:35:45 AM -15.7730 -48.1400 218° Southwest 239 275 8,500 -1,875 Descending FlightAware ADS-B
Fri 07:35:55 AM -15.7830 -48.1440 201° Southwest 239 275 8,200 -2,000 Descending FlightAware ADS-B
Fri 07:36:15 AM -15.8040 -48.1520 200° South 241 277 7,500 -2,000 Descending FlightAware ADS-B
Fri 07:36:37 AM -15.8250 -48.1600 200° South 247 284 6,800 -1,714 Descending FlightAware ADS-B
Fri 07:36:57 AM -15.8490 -48.1680 198° South 238 274 6,300 -1,021 Descending FlightAware ADS-B
Fri 07:37:24 AM -15.8700 -48.1600 160° South 222 255 6,000 -563 Descending FlightAware ADS-B
Fri 07:37:29 AM -15.8750 -48.1530 127° Southeast 218 251 6,000  Level FlightAware ADS-B
Fri 07:37:39 AM -15.8810 -48.1430 122° Southeast 213 245 6,000  Level FlightAware ADS-B
Fri 07:37:54 AM -15.8880 -48.1300 119° Southeast 208 239 6,000  Level FlightAware ADS-B
Fri 07:38:09 AM -15.8910 -48.1170 103° East 207 238 6,000  Level FlightAware ADS-B
Fri 07:38:29 AM -15.8910 -48.0960 90° East 189 217 6,000 -450 Level FlightAware ADS-B
Fri 07:38:49 AM -15.8890 -48.0780 83° East 176 203 5,700 -900 Descending FlightAware ADS-B
Fri 07:39:09 AM -15.8890 -48.0620 90° East 170 196 5,400 -833 Descending FlightAware ADS-B
Fri 07:39:25 AM -15.8880 -48.0500 85° East 159 183 5,200 -727 Descending FlightAware ADS-B
Fri 07:39:42 AM -15.8870 -48.0370 85° East 146 168 5,000 -750 Descending FlightAware ADS-B
Fri 07:40:05 AM -15.8860 -48.0210 86° East 141 162 4,700 -429 Descending FlightAware ADS-B
Fri 07:40:38 AM -15.8840 -48.0030 83° East 140 161 4,600 -771 Descending FlightAware ADS-B
Fri 07:41:15 AM -15.8830 -47.9740 88° East 139 160 3,800 -1,017 Descending FlightAware ADS-B
Fri 07:41:37 AM -15.8820 -47.9590 86° East 141 162 3,600 -652 Descending FlightAware ADS-B
Fri 07:42:01 AM -15.8810 -47.9430 86° East 138 159 3,300 -444 Descending FlightAware ADS-B
Fri 07:42:31 AM -15.8790 -47.9260 83° East 139 160 3,200 -200 Descending FlightAware ADS-B
Fri 07:45:00 AM -15.8626 -47.9127 38° Northeast  Level Estimated

Login

Don't have an account? Register now (free) for customized features, flight alerts, and more!